sensor_id;sensor_type;location;lat;lon;timestamp;temperature;humidity
52941;DHT22;62001;53.366;6.636;2023-02-07T00:00:18;-0.90;99.90
52941;DHT22;62001;53.366;6.636;2023-02-07T00:02:46;-0.80;99.90
52941;DHT22;62001;53.366;6.636;2023-02-07T00:05:13;-0.80;99.90
52941;DHT22;62001;53.366;6.636;2023-02-07T00:07:39;-0.70;99.90
52941;DHT22;62001;53.366;6.636;2023-02-07T00:10:06;-0.50;99.90
52941;DHT22;62001;53.366;6.636;2023-02-07T00:12:33;-0.40;99.90
52941;DHT22;62001;53.366;6.636;2023-02-07T00:15:00;-0.30;99.90
52941;DHT22;62001;53.366;6.636;2023-02-07T00:17:28;-0.30;99.90
52941;DHT22;62001;53.366;6.636;2023-02-07T00:19:53;-0.20;99.90
52941;DHT22;62001;53.366;6.636;2023-02-07T00:22:19;-0.10;99.90
52941;DHT22;62001;53.366;6.636;2023-02-07T00:24:45;-0.20;99.90
52941;DHT22;62001;53.366;6.636;2023-02-07T00:27:11;-0.30;99.90
52941;DHT22;62001;53.366;6.636;2023-02-07T00:29:37;-0.30;99.90
52941;DHT22;62001;53.366;6.636;2023-02-07T00:32:03;-0.30;99.90
52941;DHT22;62001;53.366;6.636;2023-02-07T00:34:29;-0.30;99.90
52941;DHT22;62001;53.366;6.636;2023-02-07T00:36:56;-0.30;99.90
52941;DHT22;62001;53.366;6.636;2023-02-07T00:39:22;-0.30;99.90
52941;DHT22;62001;53.366;6.636;2023-02-07T00:41:48;-0.50;99.90
52941;DHT22;62001;53.366;6.636;2023-02-07T00:44:15;-0.70;99.90
52941;DHT22;62001;53.366;6.636;2023-02-07T00:46:40;-0.70;99.90
52941;DHT22;62001;53.366;6.636;2023-02-07T00:49:06;-0.70;99.90
52941;DHT22;62001;53.366;6.636;2023-02-07T00:51:32;-0.80;99.90
52941;DHT22;62001;53.366;6.636;2023-02-07T00:53:58;-0.80;99.90
52941;DHT22;62001;53.366;6.636;2023-02-07T00:56:27;-0.80;99.90
52941;DHT22;62001;53.366;6.636;2023-02-07T00:58:53;-0.80;99.90
52941;DHT22;62001;53.366;6.636;2023-02-07T01:01:19;-0.80;99.90
52941;DHT22;62001;53.366;6.636;2023-02-07T01:03:45;-0.80;99.90
52941;DHT22;62001;53.366;6.636;2023-02-07T01:06:11;-0.80;99.90
52941;DHT22;62001;53.366;6.636;2023-02-07T01:08:37;-0.80;99.90
52941;DHT22;62001;53.366;6.636;2023-02-07T01:11:14;-0.80;99.90
52941;DHT22;62001;53.366;6.636;2023-02-07T01:13:41;-0.70;99.90
52941;DHT22;62001;53.366;6.636;2023-02-07T01:16:23;-0.60;99.90
52941;DHT22;62001;53.366;6.636;2023-02-07T01:18:50;-0.60;99.90
52941;DHT22;62001;53.366;6.636;2023-02-07T01:21:18;-0.70;99.90
52941;DHT22;62001;53.366;6.636;2023-02-07T01:23:45;-0.80;99.90
52941;DHT22;62001;53.366;6.636;2023-02-07T01:26:10;-0.90;99.90
52941;DHT22;62001;53.366;6.636;2023-02-07T01:28:37;-0.90;99.90
52941;DHT22;62001;53.366;6.636;2023-02-07T01:31:10;-0.90;99.90
52941;DHT22;62001;53.366;6.636;2023-02-07T01:33:37;-0.90;99.90
52941;DHT22;62001;53.366;6.636;2023-02-07T01:36:11;-0.80;99.90
52941;DHT22;62001;53.366;6.636;2023-02-07T01:38:37;-0.80;99.90
52941;DHT22;62001;53.366;6.636;2023-02-07T01:41:04;-0.80;99.90
52941;DHT22;62001;53.366;6.636;2023-02-07T01:43:30;-0.80;99.90
52941;DHT22;62001;53.366;6.636;2023-02-07T01:45:56;-0.90;99.90
52941;DHT22;62001;53.366;6.636;2023-02-07T01:48:33;-1.00;99.90
52941;DHT22;62001;53.366;6.636;2023-02-07T01:51:03;-1.20;99.90
52941;DHT22;62001;53.366;6.636;2023-02-07T01:53:32;-1.30;99.90
52941;DHT22;62001;53.366;6.636;2023-02-07T01:56:01;-1.30;99.90
52941;DHT22;62001;53.366;6.636;2023-02-07T01:58:29;-1.40;99.90
52941;DHT22;62001;53.366;6.636;2023-02-07T02:00:56;-1.50;99.90
52941;DHT22;62001;53.366;6.636;2023-02-07T02:03:23;-1.60;99.90
52941;DHT22;62001;53.366;6.636;2023-02-07T02:05:50;-1.70;99.90
52941;DHT22;62001;53.366;6.636;2023-02-07T02:08:20;-1.60;99.90
52941;DHT22;62001;53.366;6.636;2023-02-07T02:18:46;-1.50;99.90
52941;DHT22;62001;53.366;6.636;2023-02-07T02:36:25;-1.60;99.90
52941;DHT22;62001;53.366;6.636;2023-02-07T02:38:59;-1.50;99.90
52941;DHT22;62001;53.366;6.636;2023-02-07T02:41:37;-1.50;99.90
52941;DHT22;62001;53.366;6.636;2023-02-07T02:44:16;-1.50;99.90
52941;DHT22;62001;53.366;6.636;2023-02-07T02:46:44;-1.50;99.90
52941;DHT22;62001;53.366;6.636;2023-02-07T02:49:12;-1.50;99.90
52941;DHT22;62001;53.366;6.636;2023-02-07T02:51:39;-1.50;99.90
52941;DHT22;62001;53.366;6.636;2023-02-07T02:54:35;-1.50;99.90
52941;DHT22;62001;53.366;6.636;2023-02-07T03:13:16;-1.50;99.90
52941;DHT22;62001;53.366;6.636;2023-02-07T03:16:10;-1.60;99.90
52941;DHT22;62001;53.366;6.636;2023-02-07T03:21:44;-1.60;99.90
52941;DHT22;62001;53.366;6.636;2023-02-07T03:24:21;-1.60;99.90
52941;DHT22;62001;53.366;6.636;2023-02-07T03:26:51;-1.70;99.90
52941;DHT22;62001;53.366;6.636;2023-02-07T03:29:20;-1.70;99.90
52941;DHT22;62001;53.366;6.636;2023-02-07T03:31:49;-1.80;99.90
52941;DHT22;62001;53.366;6.636;2023-02-07T03:34:19;-1.80;99.90
52941;DHT22;62001;53.366;6.636;2023-02-07T03:36:58;-1.60;99.90
52941;DHT22;62001;53.366;6.636;2023-02-07T03:39:25;-1.60;99.90
52941;DHT22;62001;53.366;6.636;2023-02-07T03:41:56;-1.50;99.90
52941;DHT22;62001;53.366;6.636;2023-02-07T03:44:25;-1.50;99.90
52941;DHT22;62001;53.366;6.636;2023-02-07T03:46:52;-1.60;99.90
52941;DHT22;62001;53.366;6.636;2023-02-07T03:49:18;-1.60;99.90
52941;DHT22;62001;53.366;6.636;2023-02-07T03:51:44;-1.50;99.90
52941;DHT22;62001;53.366;6.636;2023-02-07T03:54:10;-1.60;99.90
52941;DHT22;62001;53.366;6.636;2023-02-07T03:56:36;-1.70;99.90
52941;DHT22;62001;53.366;6.636;2023-02-07T03:59:02;-1.80;99.90
52941;DHT22;62001;53.366;6.636;2023-02-07T04:01:29;-1.90;99.90
52941;DHT22;62001;53.366;6.636;2023-02-07T04:03:55;-2.00;99.90
52941;DHT22;62001;53.366;6.636;2023-02-07T04:06:21;-2.00;99.90
52941;DHT22;62001;53.366;6.636;2023-02-07T04:08:47;-2.10;99.90
52941;DHT22;62001;53.366;6.636;2023-02-07T04:11:13;-2.00;99.90
52941;DHT22;62001;53.366;6.636;2023-02-07T04:13:39;-2.10;99.90
52941;DHT22;62001;53.366;6.636;2023-02-07T04:16:05;-2.20;99.90
52941;DHT22;62001;53.366;6.636;2023-02-07T04:18:31;-2.20;99.90
52941;DHT22;62001;53.366;6.636;2023-02-07T04:21:05;-2.20;99.90
52941;DHT22;62001;53.366;6.636;2023-02-07T04:23:32;-2.10;99.90
52941;DHT22;62001;53.366;6.636;2023-02-07T04:25:58;-2.10;99.90
52941;DHT22;62001;53.366;6.636;2023-02-07T04:28:24;-2.20;99.90
52941;DHT22;62001;53.366;6.636;2023-02-07T04:30:51;-2.30;99.90
52941;DHT22;62001;53.366;6.636;2023-02-07T04:33:17;-2.20;99.90
52941;DHT22;62001;53.366;6.636;2023-02-07T04:35:42;-2.10;99.90
52941;DHT22;62001;53.366;6.636;2023-02-07T04:38:09;-2.10;99.90
52941;DHT22;62001;53.366;6.636;2023-02-07T04:40:35;-2.20;99.90
52941;DHT22;62001;53.366;6.636;2023-02-07T04:43:02;-2.20;99.90
52941;DHT22;62001;53.366;6.636;2023-02-07T04:45:28;-2.20;99.90
52941;DHT22;62001;53.366;6.636;2023-02-07T04:47:54;-2.10;99.90
52941;DHT22;62001;53.366;6.636;2023-02-07T04:50:20;-2.20;99.90
52941;DHT22;62001;53.366;6.636;2023-02-07T04:52:46;-2.20;99.90
52941;DHT22;62001;53.366;6.636;2023-02-07T04:55:12;-2.10;99.90
52941;DHT22;62001;53.366;6.636;2023-02-07T04:57:37;-2.10;99.90
52941;DHT22;62001;53.366;6.636;2023-02-07T05:00:04;-2.10;99.90
52941;DHT22;62001;53.366;6.636;2023-02-07T05:02:29;-2.20;99.90
52941;DHT22;62001;53.366;6.636;2023-02-07T05:04:55;-2.20;99.90
52941;DHT22;62001;53.366;6.636;2023-02-07T05:07:21;-2.20;99.90
52941;DHT22;62001;53.366;6.636;2023-02-07T05:09:47;-2.20;99.90
52941;DHT22;62001;53.366;6.636;2023-02-07T05:12:13;-2.20;99.90
52941;DHT22;62001;53.366;6.636;2023-02-07T05:14:39;-2.30;99.90
52941;DHT22;62001;53.366;6.636;2023-02-07T05:17:04;-2.40;99.90
52941;DHT22;62001;53.366;6.636;2023-02-07T05:19:31;-2.40;99.90
52941;DHT22;62001;53.366;6.636;2023-02-07T05:21:58;-2.30;99.90
52941;DHT22;62001;53.366;6.636;2023-02-07T05:24:24;-2.30;99.90
52941;DHT22;62001;53.366;6.636;2023-02-07T05:26:49;-2.30;99.90
52941;DHT22;62001;53.366;6.636;2023-02-07T05:29:15;-2.40;99.90
52941;DHT22;62001;53.366;6.636;2023-02-07T05:31:41;-2.30;99.90
52941;DHT22;62001;53.366;6.636;2023-02-07T05:34:26;-2.30;99.90
52941;DHT22;62001;53.366;6.636;2023-02-07T05:36:51;-2.40;99.90
52941;DHT22;62001;53.366;6.636;2023-02-07T05:39:17;-2.40;99.90
52941;DHT22;62001;53.366;6.636;2023-02-07T05:41:43;-2.50;99.90
52941;DHT22;62001;53.366;6.636;2023-02-07T05:44:09;-2.50;99.90
52941;DHT22;62001;53.366;6.636;2023-02-07T05:46:35;-2.50;99.90
52941;DHT22;62001;53.366;6.636;2023-02-07T05:49:01;-2.60;99.90
52941;DHT22;62001;53.366;6.636;2023-02-07T05:51:27;-2.50;99.90
52941;DHT22;62001;53.366;6.636;2023-02-07T05:53:53;-2.50;99.90
52941;DHT22;62001;53.366;6.636;2023-02-07T05:56:18;-2.50;99.90
52941;DHT22;62001;53.366;6.636;2023-02-07T05:58:44;-2.50;99.90
52941;DHT22;62001;53.366;6.636;2023-02-07T06:01:10;-2.40;99.90
52941;DHT22;62001;53.366;6.636;2023-02-07T06:03:36;-2.30;99.90
52941;DHT22;62001;53.366;6.636;2023-02-07T06:06:02;-2.30;99.90
52941;DHT22;62001;53.366;6.636;2023-02-07T06:08:28;-2.10;99.90
52941;DHT22;62001;53.366;6.636;2023-02-07T06:10:53;-2.10;99.90
52941;DHT22;62001;53.366;6.636;2023-02-07T06:13:19;-2.00;99.90
52941;DHT22;62001;53.366;6.636;2023-02-07T06:15:46;-2.00;99.90
52941;DHT22;62001;53.366;6.636;2023-02-07T06:18:12;-2.00;99.90
52941;DHT22;62001;53.366;6.636;2023-02-07T06:20:39;-1.90;99.90
52941;DHT22;62001;53.366;6.636;2023-02-07T06:23:04;-2.00;99.90
52941;DHT22;62001;53.366;6.636;2023-02-07T06:25:30;-2.00;99.90
52941;DHT22;62001;53.366;6.636;2023-02-07T06:27:56;-2.10;99.90
52941;DHT22;62001;53.366;6.636;2023-02-07T06:30:22;-2.10;99.90
52941;DHT22;62001;53.366;6.636;2023-02-07T06:32:48;-2.10;99.90
52941;DHT22;62001;53.366;6.636;2023-02-07T06:35:14;-2.30;99.90
52941;DHT22;62001;53.366;6.636;2023-02-07T06:37:39;-2.40;99.90
52941;DHT22;62001;53.366;6.636;2023-02-07T06:40:06;-2.40;99.90
52941;DHT22;62001;53.366;6.636;2023-02-07T06:42:32;-2.50;99.90
52941;DHT22;62001;53.366;6.636;2023-02-07T06:44:57;-2.60;99.90
52941;DHT22;62001;53.366;6.636;2023-02-07T06:47:23;-2.70;99.90
52941;DHT22;62001;53.366;6.636;2023-02-07T06:49:49;-2.70;99.90
52941;DHT22;62001;53.366;6.636;2023-02-07T06:52:15;-2.60;99.90
52941;DHT22;62001;53.366;6.636;2023-02-07T06:54:41;-2.60;99.90
52941;DHT22;62001;53.366;6.636;2023-02-07T06:57:07;-2.60;99.90
52941;DHT22;62001;53.366;6.636;2023-02-07T06:59:33;-2.60;99.90
52941;DHT22;62001;53.366;6.636;2023-02-07T07:01:59;-2.60;99.90
52941;DHT22;62001;53.366;6.636;2023-02-07T07:04:25;-2.70;99.90
52941;DHT22;62001;53.366;6.636;2023-02-07T07:06:51;-2.60;99.90
52941;DHT22;62001;53.366;6.636;2023-02-07T07:09:17;-2.70;99.90
52941;DHT22;62001;53.366;6.636;2023-02-07T07:11:43;-2.70;99.90
52941;DHT22;62001;53.366;6.636;2023-02-07T07:14:10;-2.80;99.90
52941;DHT22;62001;53.366;6.636;2023-02-07T07:16:36;-2.90;99.90
52941;DHT22;62001;53.366;6.636;2023-02-07T07:19:02;-3.00;99.90
52941;DHT22;62001;53.366;6.636;2023-02-07T07:21:28;-3.10;99.90
52941;DHT22;62001;53.366;6.636;2023-02-07T07:23:54;-3.10;99.90
52941;DHT22;62001;53.366;6.636;2023-02-07T07:26:20;-3.10;99.90
52941;DHT22;62001;53.366;6.636;2023-02-07T07:28:46;-2.90;99.90
52941;DHT22;62001;53.366;6.636;2023-02-07T07:31:12;-2.80;99.90
52941;DHT22;62001;53.366;6.636;2023-02-07T07:33:38;-2.70;99.90
52941;DHT22;62001;53.366;6.636;2023-02-07T07:36:05;-2.50;99.90
52941;DHT22;62001;53.366;6.636;2023-02-07T07:38:32;-2.40;99.90
52941;DHT22;62001;53.366;6.636;2023-02-07T07:40:58;-2.20;99.90
52941;DHT22;62001;53.366;6.636;2023-02-07T07:43:25;-2.10;99.90
52941;DHT22;62001;53.366;6.636;2023-02-07T07:45:55;-2.00;99.90
52941;DHT22;62001;53.366;6.636;2023-02-07T07:48:22;-1.80;99.90
52941;DHT22;62001;53.366;6.636;2023-02-07T07:50:49;-1.70;99.90
52941;DHT22;62001;53.366;6.636;2023-02-07T07:53:16;-1.60;99.90
52941;DHT22;62001;53.366;6.636;2023-02-07T07:55:51;-1.50;99.90
52941;DHT22;62001;53.366;6.636;2023-02-07T07:58:18;-1.30;99.90
52941;DHT22;62001;53.366;6.636;2023-02-07T08:00:44;-1.00;99.90
52941;DHT22;62001;53.366;6.636;2023-02-07T08:03:10;-0.60;99.90
52941;DHT22;62001;53.366;6.636;2023-02-07T08:05:37;-0.10;99.90
52941;DHT22;62001;53.366;6.636;2023-02-07T08:08:03;0.20;99.90
52941;DHT22;62001;53.366;6.636;2023-02-07T08:10:29;0.30;99.90
52941;DHT22;62001;53.366;6.636;2023-02-07T08:12:55;0.40;99.90
52941;DHT22;62001;53.366;6.636;2023-02-07T08:15:23;0.40;99.90
52941;DHT22;62001;53.366;6.636;2023-02-07T08:17:49;0.40;99.90
52941;DHT22;62001;53.366;6.636;2023-02-07T08:20:15;0.40;99.90
52941;DHT22;62001;53.366;6.636;2023-02-07T08:22:41;0.30;99.90
52941;DHT22;62001;53.366;6.636;2023-02-07T08:25:07;0.20;99.90
52941;DHT22;62001;53.366;6.636;2023-02-07T08:27:33;0.20;99.90
52941;DHT22;62001;53.366;6.636;2023-02-07T08:29:59;0.00;99.90
52941;DHT22;62001;53.366;6.636;2023-02-07T08:32:25;-0.10;99.90
52941;DHT22;62001;53.366;6.636;2023-02-07T08:34:53;-0.20;99.90
52941;DHT22;62001;53.366;6.636;2023-02-07T08:37:19;-0.20;99.90
52941;DHT22;62001;53.366;6.636;2023-02-07T08:39:44;-0.10;99.90
52941;DHT22;62001;53.366;6.636;2023-02-07T08:42:10;-0.10;99.90
52941;DHT22;62001;53.366;6.636;2023-02-07T08:44:36;0.00;99.90
52941;DHT22;62001;53.366;6.636;2023-02-07T08:47:03;0.10;99.90
52941;DHT22;62001;53.366;6.636;2023-02-07T08:49:29;0.20;99.90
52941;DHT22;62001;53.366;6.636;2023-02-07T08:51:55;0.40;99.90
52941;DHT22;62001;53.366;6.636;2023-02-07T08:54:21;0.60;99.90
52941;DHT22;62001;53.366;6.636;2023-02-07T08:56:47;0.80;99.90
52941;DHT22;62001;53.366;6.636;2023-02-07T08:59:13;1.30;99.90
52941;DHT22;62001;53.366;6.636;2023-02-07T09:01:39;2.50;99.90
52941;DHT22;62001;53.366;6.636;2023-02-07T09:04:05;4.00;99.90
52941;DHT22;62001;53.366;6.636;2023-02-07T09:06:30;5.00;99.90
52941;DHT22;62001;53.366;6.636;2023-02-07T09:08:56;5.50;99.90
52941;DHT22;62001;53.366;6.636;2023-02-07T09:11:23;5.90;99.90
52941;DHT22;62001;53.366;6.636;2023-02-07T09:13:49;5.90;99.90
52941;DHT22;62001;53.366;6.636;2023-02-07T09:16:15;5.50;99.90
52941;DHT22;62001;53.366;6.636;2023-02-07T09:18:41;4.80;99.90
52941;DHT22;62001;53.366;6.636;2023-02-07T09:21:07;4.10;99.90
52941;DHT22;62001;53.366;6.636;2023-02-07T09:23:33;3.60;99.90
52941;DHT22;62001;53.366;6.636;2023-02-07T09:26:02;3.90;99.90
52941;DHT22;62001;53.366;6.636;2023-02-07T09:28:28;4.60;99.90
52941;DHT22;62001;53.366;6.636;2023-02-07T09:30:54;5.50;99.90
52941;DHT22;62001;53.366;6.636;2023-02-07T09:33:20;6.10;99.90
52941;DHT22;62001;53.366;6.636;2023-02-07T09:35:50;6.40;99.90
52941;DHT22;62001;53.366;6.636;2023-02-07T09:38:19;6.80;99.90
52941;DHT22;62001;53.366;6.636;2023-02-07T09:40:48;7.30;99.90
52941;DHT22;62001;53.366;6.636;2023-02-07T09:46:06;8.60;99.90
52941;DHT22;62001;53.366;6.636;2023-02-07T09:48:44;8.90;99.90
52941;DHT22;62001;53.366;6.636;2023-02-07T09:51:12;8.40;99.90
52941;DHT22;62001;53.366;6.636;2023-02-07T09:54:05;7.30;99.90
52941;DHT22;62001;53.366;6.636;2023-02-07T09:56:33;6.90;99.90
52941;DHT22;62001;53.366;6.636;2023-02-07T10:02:09;6.90;99.90
52941;DHT22;62001;53.366;6.636;2023-02-07T10:04:41;6.40;99.90
52941;DHT22;62001;53.366;6.636;2023-02-07T10:07:09;6.60;99.90
52941;DHT22;62001;53.366;6.636;2023-02-07T10:09:42;6.60;99.90
52941;DHT22;62001;53.366;6.636;2023-02-07T10:12:22;6.70;99.90
52941;DHT22;62001;53.366;6.636;2023-02-07T10:18:19;6.50;99.90
52941;DHT22;62001;53.366;6.636;2023-02-07T10:20:52;6.70;99.90
52941;DHT22;62001;53.366;6.636;2023-02-07T10:26:26;7.10;99.90
52941;DHT22;62001;53.366;6.636;2023-02-07T10:31:54;5.90;99.90
52941;DHT22;62001;53.366;6.636;2023-02-07T10:34:27;6.10;99.90
52941;DHT22;62001;53.366;6.636;2023-02-07T10:36:57;6.20;99.90
52941;DHT22;62001;53.366;6.636;2023-02-07T10:39:42;6.20;99.90
52941;DHT22;62001;53.366;6.636;2023-02-07T10:42:14;6.40;99.90
52941;DHT22;62001;53.366;6.636;2023-02-07T10:44:40;6.90;99.90
52941;DHT22;62001;53.366;6.636;2023-02-07T10:47:12;7.30;99.90
52941;DHT22;62001;53.366;6.636;2023-02-07T10:49:39;7.40;99.90
52941;DHT22;62001;53.366;6.636;2023-02-07T10:54:57;7.30;99.90
52941;DHT22;62001;53.366;6.636;2023-02-07T10:57:24;6.90;99.90
52941;DHT22;62001;53.366;6.636;2023-02-07T11:02:43;5.40;99.90
52941;DHT22;62001;53.366;6.636;2023-02-07T11:10:24;4.10;99.90
52941;DHT22;62001;53.366;6.636;2023-02-07T11:12:54;3.90;99.90
52941;DHT22;62001;53.366;6.636;2023-02-07T11:15:21;3.80;99.90
52941;DHT22;62001;53.366;6.636;2023-02-07T11:17:54;3.70;99.90
52941;DHT22;62001;53.366;6.636;2023-02-07T11:20:33;3.70;99.90
52941;DHT22;62001;53.366;6.636;2023-02-07T11:22:59;3.70;99.90
52941;DHT22;62001;53.366;6.636;2023-02-07T11:25:34;3.70;99.90
52941;DHT22;62001;53.366;6.636;2023-02-07T11:28:01;3.70;99.90
52941;DHT22;62001;53.366;6.636;2023-02-07T11:30:28;3.80;99.90
52941;DHT22;62001;53.366;6.636;2023-02-07T11:33:01;3.90;99.90
52941;DHT22;62001;53.366;6.636;2023-02-07T11:35:27;4.00;99.90
52941;DHT22;62001;53.366;6.636;2023-02-07T11:38:00;4.00;99.90
52941;DHT22;62001;53.366;6.636;2023-02-07T11:40:29;4.00;99.90
52941;DHT22;62001;53.366;6.636;2023-02-07T11:43:13;4.10;99.90
52941;DHT22;62001;53.366;6.636;2023-02-07T11:45:47;4.10;99.90
52941;DHT22;62001;53.366;6.636;2023-02-07T11:48:20;4.10;99.90
52941;DHT22;62001;53.366;6.636;2023-02-07T11:50:51;4.00;99.90
52941;DHT22;62001;53.366;6.636;2023-02-07T11:53:22;4.00;99.90
52941;DHT22;62001;53.366;6.636;2023-02-07T11:55:51;4.00;99.90
52941;DHT22;62001;53.366;6.636;2023-02-07T11:58:40;4.00;99.90
52941;DHT22;62001;53.366;6.636;2023-02-07T12:01:07;4.00;99.90
52941;DHT22;62001;53.366;6.636;2023-02-07T12:03:40;4.10;99.90
52941;DHT22;62001;53.366;6.636;2023-02-07T12:06:08;4.10;99.90
52941;DHT22;62001;53.366;6.636;2023-02-07T12:08:38;4.10;99.90
52941;DHT22;62001;53.366;6.636;2023-02-07T12:11:18;4.20;99.90
52941;DHT22;62001;53.366;6.636;2023-02-07T12:13:52;4.10;99.90
52941;DHT22;62001;53.366;6.636;2023-02-07T12:16:33;4.10;99.90
52941;DHT22;62001;53.366;6.636;2023-02-07T12:19:09;4.10;99.90
52941;DHT22;62001;53.366;6.636;2023-02-07T12:21:55;4.10;99.90
52941;DHT22;62001;53.366;6.636;2023-02-07T12:25:05;4.20;99.90
52941;DHT22;62001;53.366;6.636;2023-02-07T12:27:38;4.30;99.90
52941;DHT22;62001;53.366;6.636;2023-02-07T12:30:27;4.40;99.90
52941;DHT22;62001;53.366;6.636;2023-02-07T12:36:08;4.40;99.90
52941;DHT22;62001;53.366;6.636;2023-02-07T12:41:18;4.40;99.90
52941;DHT22;62001;53.366;6.636;2023-02-07T12:44:29;4.40;99.90
52941;DHT22;62001;53.366;6.636;2023-02-07T12:52:46;4.40;99.90
52941;DHT22;62001;53.366;6.636;2023-02-07T13:09:17;4.30;99.90
52941;DHT22;62001;53.366;6.636;2023-02-07T13:12:03;4.30;99.90
52941;DHT22;62001;53.366;6.636;2023-02-07T13:14:56;4.30;99.90
52941;DHT22;62001;53.366;6.636;2023-02-07T13:20:46;4.30;99.90
52941;DHT22;62001;53.366;6.636;2023-02-07T13:23:16;4.30;99.90
52941;DHT22;62001;53.366;6.636;2023-02-07T13:25:44;4.30;99.90
52941;DHT22;62001;53.366;6.636;2023-02-07T13:30:45;4.40;99.90
52941;DHT22;62001;53.366;6.636;2023-02-07T13:33:33;4.40;99.90
52941;DHT22;62001;53.366;6.636;2023-02-07T13:36:23;4.40;99.90
52941;DHT22;62001;53.366;6.636;2023-02-07T13:39:00;4.40;99.90
52941;DHT22;62001;53.366;6.636;2023-02-07T13:52:19;4.30;99.90
52941;DHT22;62001;53.366;6.636;2023-02-07T13:57:50;4.30;99.90
52941;DHT22;62001;53.366;6.636;2023-02-07T14:03:21;4.30;99.90
52941;DHT22;62001;53.366;6.636;2023-02-07T14:05:47;4.30;99.90
52941;DHT22;62001;53.366;6.636;2023-02-07T14:13:48;4.20;99.90
52941;DHT22;62001;53.366;6.636;2023-02-07T14:16:44;4.10;99.90
52941;DHT22;62001;53.366;6.636;2023-02-07T14:19:12;4.20;99.90
52941;DHT22;62001;53.366;6.636;2023-02-07T14:21:40;4.20;99.90
52941;DHT22;62001;53.366;6.636;2023-02-07T14:32:00;4.10;99.90
52941;DHT22;62001;53.366;6.636;2023-02-07T14:34:56;4.10;99.90
52941;DHT22;62001;53.366;6.636;2023-02-07T14:37:20;4.10;99.90
52941;DHT22;62001;53.366;6.636;2023-02-07T14:45:39;4.10;99.90
52941;DHT22;62001;53.366;6.636;2023-02-07T14:48:38;4.10;99.90
52941;DHT22;62001;53.366;6.636;2023-02-07T14:51:11;4.10;99.90
52941;DHT22;62001;53.366;6.636;2023-02-07T14:53:40;4.10;99.90
52941;DHT22;62001;53.366;6.636;2023-02-07T14:56:19;4.00;99.90
52941;DHT22;62001;53.366;6.636;2023-02-07T14:58:49;4.00;99.90
52941;DHT22;62001;53.366;6.636;2023-02-07T15:01:18;3.90;99.90
52941;DHT22;62001;53.366;6.636;2023-02-07T15:04:01;3.90;99.90
52941;DHT22;62001;53.366;6.636;2023-02-07T15:06:28;3.90;99.90
52941;DHT22;62001;53.366;6.636;2023-02-07T15:09:00;3.90;99.90
52941;DHT22;62001;53.366;6.636;2023-02-07T15:11:28;3.90;99.90
52941;DHT22;62001;53.366;6.636;2023-02-07T15:13:57;3.80;99.90
52941;DHT22;62001;53.366;6.636;2023-02-07T15:16:27;3.80;99.90
52941;DHT22;62001;53.366;6.636;2023-02-07T15:19:03;3.70;99.90
52941;DHT22;62001;53.366;6.636;2023-02-07T15:21:36;3.60;99.90
52941;DHT22;62001;53.366;6.636;2023-02-07T15:26:52;3.50;99.90
52941;DHT22;62001;53.366;6.636;2023-02-07T15:29:21;3.40;99.90
52941;DHT22;62001;53.366;6.636;2023-02-07T15:31:48;3.40;99.90
52941;DHT22;62001;53.366;6.636;2023-02-07T15:34:30;3.30;99.90
52941;DHT22;62001;53.366;6.636;2023-02-07T15:37:15;3.30;99.90
52941;DHT22;62001;53.366;6.636;2023-02-07T15:39:41;3.20;99.90
52941;DHT22;62001;53.366;6.636;2023-02-07T15:42:11;3.10;99.90
52941;DHT22;62001;53.366;6.636;2023-02-07T15:44:50;3.10;99.90
52941;DHT22;62001;53.366;6.636;2023-02-07T15:50:03;2.90;99.90
52941;DHT22;62001;53.366;6.636;2023-02-07T15:52:36;2.90;99.90
52941;DHT22;62001;53.366;6.636;2023-02-07T15:57:43;2.70;99.90
52941;DHT22;62001;53.366;6.636;2023-02-07T16:00:22;2.60;99.90
52941;DHT22;62001;53.366;6.636;2023-02-07T16:02:59;2.60;99.90
52941;DHT22;62001;53.366;6.636;2023-02-07T16:05:35;2.50;99.90
52941;DHT22;62001;53.366;6.636;2023-02-07T16:08:27;2.30;99.90
52941;DHT22;62001;53.366;6.636;2023-02-07T16:11:14;2.30;99.90
52941;DHT22;62001;53.366;6.636;2023-02-07T16:13:46;2.10;99.90
52941;DHT22;62001;53.366;6.636;2023-02-07T16:16:20;2.00;99.90
52941;DHT22;62001;53.366;6.636;2023-02-07T16:18:47;1.80;99.90
52941;DHT22;62001;53.366;6.636;2023-02-07T16:21:17;1.70;99.90
52941;DHT22;62001;53.366;6.636;2023-02-07T16:23:45;1.60;99.90
52941;DHT22;62001;53.366;6.636;2023-02-07T16:26:14;1.60;99.90
52941;DHT22;62001;53.366;6.636;2023-02-07T16:28:42;1.60;99.90
52941;DHT22;62001;53.366;6.636;2023-02-07T16:31:08;1.50;99.90
52941;DHT22;62001;53.366;6.636;2023-02-07T16:33:34;1.50;99.90
52941;DHT22;62001;53.366;6.636;2023-02-07T16:35:59;1.60;99.90
52941;DHT22;62001;53.366;6.636;2023-02-07T16:38:25;1.60;99.90
52941;DHT22;62001;53.366;6.636;2023-02-07T16:40:51;1.60;99.90
52941;DHT22;62001;53.366;6.636;2023-02-07T16:43:34;1.70;99.90
52941;DHT22;62001;53.366;6.636;2023-02-07T16:46:01;1.60;99.90
52941;DHT22;62001;53.366;6.636;2023-02-07T16:48:27;1.50;99.90
52941;DHT22;62001;53.366;6.636;2023-02-07T16:50:53;1.40;99.90
52941;DHT22;62001;53.366;6.636;2023-02-07T16:53:18;1.30;99.90
52941;DHT22;62001;53.366;6.636;2023-02-07T16:55:44;1.20;99.90
52941;DHT22;62001;53.366;6.636;2023-02-07T16:58:21;1.10;99.90
52941;DHT22;62001;53.366;6.636;2023-02-07T17:00:48;1.00;99.90
52941;DHT22;62001;53.366;6.636;2023-02-07T17:03:14;1.00;99.90
52941;DHT22;62001;53.366;6.636;2023-02-07T17:05:40;1.10;99.90
52941;DHT22;62001;53.366;6.636;2023-02-07T17:08:07;1.10;99.90
52941;DHT22;62001;53.366;6.636;2023-02-07T17:10:34;1.20;99.90
52941;DHT22;62001;53.366;6.636;2023-02-07T17:13:00;1.20;99.90
52941;DHT22;62001;53.366;6.636;2023-02-07T17:15:26;1.10;99.90
52941;DHT22;62001;53.366;6.636;2023-02-07T17:17:52;1.10;99.90
52941;DHT22;62001;53.366;6.636;2023-02-07T17:20:31;1.00;99.90
52941;DHT22;62001;53.366;6.636;2023-02-07T17:22:57;1.00;99.90
52941;DHT22;62001;53.366;6.636;2023-02-07T17:25:26;1.00;99.90
52941;DHT22;62001;53.366;6.636;2023-02-07T17:27:53;0.90;99.90
52941;DHT22;62001;53.366;6.636;2023-02-07T17:30:27;0.80;99.90
52941;DHT22;62001;53.366;6.636;2023-02-07T17:32:54;0.80;99.90
52941;DHT22;62001;53.366;6.636;2023-02-07T17:35:20;0.70;99.90
52941;DHT22;62001;53.366;6.636;2023-02-07T17:37:47;0.60;99.90
52941;DHT22;62001;53.366;6.636;2023-02-07T17:42:48;0.40;99.90
52941;DHT22;62001;53.366;6.636;2023-02-07T17:45:14;0.30;99.90
52941;DHT22;62001;53.366;6.636;2023-02-07T17:47:40;0.10;99.90
52941;DHT22;62001;53.366;6.636;2023-02-07T17:50:10;0.00;99.90
52941;DHT22;62001;53.366;6.636;2023-02-07T17:52:37;0.00;99.90
52941;DHT22;62001;53.366;6.636;2023-02-07T17:55:03;0.00;99.90
52941;DHT22;62001;53.366;6.636;2023-02-07T17:57:29;-0.10;99.90
52941;DHT22;62001;53.366;6.636;2023-02-07T17:59:55;-0.30;99.90
52941;DHT22;62001;53.366;6.636;2023-02-07T18:02:21;-0.40;99.90
52941;DHT22;62001;53.366;6.636;2023-02-07T18:04:46;-0.50;99.90
52941;DHT22;62001;53.366;6.636;2023-02-07T18:07:12;-0.60;99.90
52941;DHT22;62001;53.366;6.636;2023-02-07T18:09:39;-0.70;99.90
52941;DHT22;62001;53.366;6.636;2023-02-07T18:12:05;-0.80;99.90
52941;DHT22;62001;53.366;6.636;2023-02-07T18:14:30;-0.80;99.90
52941;DHT22;62001;53.366;6.636;2023-02-07T18:16:56;-0.80;99.90